Terminal Aerodrome Forecast
Issued by NWS Quad Cities IA IL

Home | Current Version | Previous Version | Text Only | Print | Product List | Glossary On
Versions: 1 2 3 4 5 6 7 8 9 10 11 12 13 14 15 16 17 18 19 20 21 22 23 24 25 26 27 28
000
FTUS43 KDVN 201100
TAFMLI
TAF
KMLI 201135Z 2012/2112 VRB02KT P6SM SCT250
     FM201500 21007KT P6SM SCT050
     FM210200 17003KT P6SM VCTS FEW050CB BKN120=

USA.gov is the U.S. government's official web portal to all federal, state and local government web resources and services.